createdAt,value
2018-02-06T00:00:47.058Z,22.9
2018-02-06T00:01:46.983Z,22.9
2018-02-06T00:02:46.901Z,22.9
2018-02-06T00:03:46.933Z,22.8
2018-02-06T00:04:46.900Z,22.7
2018-02-06T00:05:46.671Z,22.6
2018-02-06T00:06:46.657Z,22.4
2018-02-06T00:07:46.509Z,22.4
2018-02-06T00:08:46.726Z,22.4
2018-02-06T00:09:46.507Z,22.3
2018-02-06T00:10:46.248Z,22.3
2018-02-06T00:11:46.199Z,22.3
2018-02-06T00:12:46.127Z,22.4
2018-02-06T00:13:46.044Z,22.4
2018-02-06T00:14:46.005Z,22.4
2018-02-06T00:15:45.864Z,22.4
2018-02-06T00:16:45.780Z,22.5
2018-02-06T00:17:45.765Z,22.6
2018-02-06T00:18:45.669Z,22.6
2018-02-06T00:19:45.575Z,22.6
2018-02-06T00:20:45.503Z,22.6
2018-02-06T00:21:45.402Z,22.8
2018-02-06T00:22:45.496Z,22.9
2018-02-06T00:23:45.265Z,22.9
2018-02-06T00:24:45.680Z,22.9
2018-02-06T00:25:45.078Z,22.9
2018-02-06T00:26:45.063Z,23
2018-02-06T00:27:44.921Z,23.1
2018-02-06T00:28:45.026Z,23.1
2018-02-06T00:29:44.797Z,22.9
2018-02-06T00:30:44.757Z,22.8
2018-02-06T00:31:44.614Z,22.9
2018-02-06T00:32:44.561Z,22.9
2018-02-06T00:33:44.488Z,22.9
2018-02-06T00:34:44.445Z,22.8
2018-02-06T00:35:44.333Z,22.6
2018-02-06T00:36:44.580Z,22.5
2018-02-06T00:37:44.160Z,22.4
2018-02-06T00:38:44.213Z,22.4
2018-02-06T00:39:44.048Z,22.4
2018-02-06T00:40:43.997Z,22.4
2018-02-06T00:41:43.891Z,22.4
2018-02-06T00:42:43.839Z,22.4
2018-02-06T00:43:43.709Z,22.4
2018-02-06T00:44:43.741Z,22.4
2018-02-06T00:45:43.658Z,22.5
2018-02-06T00:46:43.529Z,22.6
2018-02-06T00:47:43.430Z,22.6
2018-02-06T00:48:43.286Z,22.6
2018-02-06T00:49:43.266Z,22.7
2018-02-06T00:50:43.160Z,22.8
2018-02-06T00:51:43.182Z,22.9
2018-02-06T00:52:42.968Z,22.9
2018-02-06T00:53:43.233Z,22.9
2018-02-06T00:54:42.845Z,22.9
2018-02-06T00:55:42.767Z,22.9
2018-02-06T00:56:42.685Z,23
2018-02-06T00:57:42.578Z,22.9
2018-02-06T00:58:42.685Z,22.8
2018-02-06T00:59:42.423Z,22.8
2018-02-06T01:00:42.714Z,22.6
2018-02-06T01:01:42.406Z,22.6
2018-02-06T01:02:42.227Z,22.5
2018-02-06T01:03:42.253Z,22.4
2018-02-06T01:04:42.125Z,22.4
2018-02-06T01:05:42.018Z,22.4
2018-02-06T01:06:41.913Z,22.5
2018-02-06T01:07:41.825Z,22.5
2018-02-06T01:08:41.812Z,22.5
2018-02-06T01:09:41.788Z,22.6
2018-02-06T01:10:41.973Z,22.6
2018-02-06T01:11:41.523Z,22.6
2018-02-06T01:12:41.444Z,22.6
2018-02-06T01:13:41.361Z,22.6
2018-02-06T01:14:41.300Z,22.7
2018-02-06T01:15:41.247Z,22.8
2018-02-06T01:16:41.095Z,22.9
2018-02-06T01:17:41.045Z,23
2018-02-06T01:18:40.976Z,22.9
2018-02-06T01:19:40.896Z,22.9
2018-02-06T01:20:40.850Z,23
2018-02-06T01:21:40.705Z,23.1
2018-02-06T01:22:40.952Z,23.1
2018-02-06T01:23:40.885Z,22.9
2018-02-06T01:24:40.797Z,22.8
2018-02-06T01:25:40.576Z,22.9
2018-02-06T01:26:40.401Z,22.9
2018-02-06T01:27:40.611Z,22.9
2018-02-06T01:28:40.239Z,22.8
2018-02-06T01:29:40.232Z,22.6
2018-02-06T01:30:40.138Z,22.5
2018-02-06T01:31:40.089Z,22.4
2018-02-06T01:32:39.996Z,22.3
2018-02-06T01:33:39.903Z,22.3
2018-02-06T01:34:39.892Z,22.3
2018-02-06T01:35:39.790Z,22.3
2018-02-06T01:36:39.689Z,22.3
2018-02-06T01:37:39.617Z,22.3
2018-02-06T01:38:39.659Z,22.4
2018-02-06T01:39:39.481Z,22.4
2018-02-06T01:40:39.685Z,22.4
2018-02-06T01:41:39.383Z,22.5
2018-02-06T01:42:39.245Z,22.6
2018-02-06T01:43:39.496Z,22.6
2018-02-06T01:44:39.255Z,22.6
2018-02-06T01:45:39.069Z,22.6
2018-02-06T01:46:39.003Z,22.6
2018-02-06T01:47:38.965Z,22.7
2018-02-06T01:48:38.927Z,22.8
2018-02-06T01:49:38.907Z,22.9
2018-02-06T01:50:38.756Z,22.9
2018-02-06T01:51:38.717Z,22.9
2018-02-06T01:52:38.620Z,22.9
2018-02-06T01:53:38.488Z,22.9
2018-02-06T01:54:38.559Z,23
2018-02-06T01:55:38.491Z,22.9
2018-02-06T01:56:38.419Z,22.8
2018-02-06T01:57:38.369Z,22.7
2018-02-06T01:58:38.144Z,22.6
2018-02-06T01:59:38.137Z,22.5
2018-02-06T02:00:38.012Z,22.4
2018-02-06T02:01:38.073Z,22.4
2018-02-06T02:02:37.907Z,22.4
2018-02-06T02:03:37.868Z,22.4
2018-02-06T02:04:37.827Z,22.4
2018-02-06T02:05:37.699Z,22.4
2018-02-06T02:06:37.730Z,22.5
2018-02-06T02:07:37.558Z,22.5
2018-02-06T02:08:37.634Z,22.5
2018-02-06T02:09:37.480Z,22.6
2018-02-06T02:10:37.319Z,22.6
2018-02-06T02:11:37.314Z,22.6
2018-02-06T02:12:37.418Z,22.6
2018-02-06T02:13:37.148Z,22.6
2018-02-06T02:14:37.180Z,22.6
2018-02-06T02:15:36.976Z,22.6
2018-02-06T02:16:37.086Z,22.7
2018-02-06T02:17:36.878Z,22.8
2018-02-06T02:18:36.905Z,22.9
2018-02-06T02:19:36.701Z,23
2018-02-06T02:20:36.695Z,22.9
2018-02-06T02:21:36.688Z,22.9
2018-02-06T02:22:36.640Z,23
2018-02-06T02:23:36.564Z,23.1
2018-02-06T02:24:36.420Z,23.1
2018-02-06T02:25:36.379Z,22.9
2018-02-06T02:26:36.362Z,22.8
2018-02-06T02:27:36.291Z,22.9
2018-02-06T02:28:36.218Z,22.9
2018-02-06T02:29:36.060Z,22.9
2018-02-06T02:30:35.943Z,22.6
2018-02-06T02:31:36.219Z,22.5
2018-02-06T02:32:35.840Z,22.4
2018-02-06T02:33:35.923Z,22.3
2018-02-06T02:34:35.947Z,22.3
2018-02-06T02:35:35.674Z,22.3
2018-02-06T02:36:35.623Z,22.2
2018-02-06T02:37:35.600Z,22.2
2018-02-06T02:38:35.541Z,22.2
2018-02-06T02:39:35.356Z,22.2
2018-02-06T02:40:35.257Z,22.3
2018-02-06T02:41:35.367Z,22.3
2018-02-06T04:38:27.173Z,22.4
2018-02-06T04:39:27.132Z,22.4
2018-02-06T04:40:26.998Z,22.4
2018-02-06T04:41:27.254Z,22.4
2018-02-06T04:42:26.899Z,22.4
2018-02-06T04:43:26.828Z,22.4
2018-02-06T04:44:26.867Z,22.5
2018-02-06T04:45:26.805Z,22.6
2018-02-06T04:46:26.650Z,22.6
2018-02-06T04:47:26.609Z,22.6
2018-02-06T04:48:26.498Z,22.6
2018-02-06T04:49:26.523Z,22.6
2018-02-06T04:50:26.340Z,22.7
2018-02-06T04:51:26.277Z,22.8
2018-02-06T04:52:26.353Z,22.9
2018-02-06T04:53:26.135Z,22.9
2018-02-06T04:54:26.070Z,22.9
2018-02-06T04:55:26.152Z,22.9
2018-02-06T04:56:26.177Z,23
2018-02-06T04:57:25.893Z,23.1
2018-02-06T04:58:25.854Z,22.9
2018-02-06T04:59:25.730Z,22.8
2018-02-06T05:00:25.656Z,22.7
2018-02-06T05:01:25.694Z,22.6
2018-02-06T05:02:25.783Z,22.5
2018-02-06T05:03:25.479Z,22.5
2018-02-06T05:04:25.435Z,22.4
2018-02-06T05:05:25.344Z,22.4
2018-02-06T05:06:25.246Z,22.4
2018-02-06T05:07:25.171Z,22.4
2018-02-06T05:08:25.101Z,22.5
2018-02-06T05:09:25.174Z,22.6
2018-02-06T05:10:24.963Z,22.6
2018-02-06T05:11:24.900Z,22.6
2018-02-06T05:12:25.137Z,22.6
2018-02-06T05:13:24.818Z,22.7
2018-02-06T05:14:24.722Z,22.8
2018-02-06T05:15:24.621Z,22.8
2018-02-06T05:16:24.555Z,22.9
2018-02-06T05:17:24.482Z,22.8
2018-02-06T05:18:24.454Z,22.8
2018-02-06T05:19:24.406Z,22.8
2018-02-06T05:20:24.387Z,22.9
2018-02-06T05:21:24.212Z,22.9
2018-02-06T05:22:24.292Z,22.8
2018-02-06T05:23:24.130Z,22.6
2018-02-06T05:24:24.110Z,22.6
2018-02-06T05:25:23.935Z,22.4
2018-02-06T05:26:24.163Z,22.4
2018-02-06T05:27:23.944Z,22.3
2018-02-06T05:28:23.703Z,22.4
2018-02-06T05:29:23.636Z,22.4
2018-02-06T05:30:23.737Z,22.4
2018-02-06T05:31:23.809Z,22.4
2018-02-06T05:32:23.556Z,22.4
2018-02-06T05:33:23.384Z,22.4
2018-02-06T05:34:23.567Z,22.5
2018-02-06T05:35:23.278Z,22.5
2018-02-06T05:36:23.189Z,22.5
2018-02-06T05:37:23.221Z,22.6
2018-02-06T05:38:23.101Z,22.5
2018-02-06T05:39:23.120Z,22.5
2018-02-06T05:40:22.961Z,22.6
2018-02-06T05:41:22.858Z,22.6
2018-02-06T05:42:22.762Z,21.9
2018-02-06T05:43:22.991Z,20.7
2018-02-06T05:44:22.739Z,19.3
2018-02-06T05:45:22.529Z,17.9
2018-02-06T05:46:22.525Z,16.8
2018-02-06T05:47:22.398Z,16.8
2018-02-06T05:48:22.674Z,17.6
2018-02-06T05:49:22.391Z,18.5
2018-02-06T05:50:22.275Z,19.3
2018-02-06T05:51:22.186Z,19.9
2018-02-06T05:52:22.187Z,19.3
2018-02-06T05:53:22.008Z,17.9
2018-02-06T05:54:21.940Z,16.5
2018-02-06T05:55:21.870Z,17.1
2018-02-06T05:56:21.771Z,18.1
2018-02-06T05:57:21.775Z,18.8
2018-02-06T05:58:21.730Z,19.4
2018-02-06T05:59:21.703Z,19.9
2018-02-06T06:00:21.824Z,20.5
2018-02-06T06:01:21.587Z,20.9
2018-02-06T06:02:21.520Z,21.3
2018-02-06T06:03:21.380Z,21.6
2018-02-06T06:04:21.250Z,21.9
2018-02-06T06:05:21.317Z,22.1
2018-02-06T06:06:21.170Z,22.3
2018-02-06T06:07:21.132Z,22.6
2018-02-06T06:08:21.031Z,22.8
2018-02-06T06:09:20.902Z,23.1
2018-02-06T06:10:20.862Z,23.3
2018-02-06T06:11:20.906Z,23.4
2018-02-06T06:12:20.697Z,23.3
2018-02-06T06:13:20.681Z,23.1
2018-02-06T06:14:20.697Z,23
2018-02-06T06:15:20.629Z,23
2018-02-06T06:16:20.740Z,23.1
2018-02-06T06:17:20.364Z,23
2018-02-06T06:18:20.638Z,22.9
2018-02-06T06:19:20.540Z,23.1
2018-02-06T06:20:20.284Z,23.1
2018-02-06T06:21:20.210Z,23.2
2018-02-06T06:22:20.010Z,23.1
2018-02-06T06:23:20.120Z,23
2018-02-06T06:24:19.913Z,23.1
2018-02-06T06:25:19.839Z,23.1
2018-02-06T06:26:19.874Z,23.1
2018-02-06T06:27:20.002Z,23
2018-02-06T06:28:19.841Z,22.9
2018-02-06T06:29:19.660Z,22.9
2018-02-06T06:30:19.556Z,22.9
2018-02-06T06:31:19.715Z,22.9
2018-02-06T06:32:19.358Z,22.8
2018-02-06T06:33:19.483Z,22.8
2018-02-06T06:34:19.278Z,22.8
2018-02-06T06:35:19.160Z,22.8
2018-02-06T06:36:19.188Z,22.8
2018-02-06T06:37:19.021Z,22.7
2018-02-06T06:38:18.980Z,22.7
2018-02-06T06:39:19.123Z,22.8
2018-02-06T06:40:18.838Z,22.8
2018-02-06T06:41:18.794Z,22.7
2018-02-06T06:42:18.770Z,22.6
2018-02-06T06:43:18.715Z,22.7
2018-02-06T06:44:18.528Z,22.7
2018-02-06T06:45:18.585Z,22.7
2018-02-06T06:46:18.358Z,22.7
2018-02-06T06:47:18.322Z,22.7
2018-02-06T06:48:18.368Z,22.7
2018-02-06T06:49:18.225Z,22.7
2018-02-06T06:50:18.085Z,22.8
2018-02-06T06:51:18.379Z,22.8
2018-02-06T06:52:17.953Z,22.7
2018-02-06T06:53:18.201Z,22.8
2018-02-06T06:54:18.138Z,22.8
2018-02-06T06:55:17.877Z,22.8
2018-02-06T06:56:17.765Z,22.8
2018-02-06T06:57:17.668Z,22.8
2018-02-06T06:58:17.826Z,22.8
2018-02-06T06:59:17.644Z,22.8
2018-02-06T07:00:17.535Z,22.8
2018-02-06T07:01:17.339Z,22.8
2018-02-06T07:02:17.320Z,22.9
2018-02-06T07:03:17.231Z,22.9
2018-02-06T07:04:17.148Z,22.9
2018-02-06T07:05:17.087Z,22.9
2018-02-06T07:06:17.011Z,22.9
2018-02-06T07:07:16.914Z,22.9
2018-02-06T07:08:16.916Z,23
2018-02-06T07:09:16.817Z,23
2018-02-06T07:10:16.741Z,23.1
2018-02-06T07:11:16.669Z,23.1
2018-02-06T07:12:16.602Z,23.1
2018-02-06T07:13:16.532Z,23.1
2018-02-06T07:14:16.582Z,23.1
2018-02-06T07:15:16.546Z,23.1
2018-02-06T07:16:16.617Z,23.1
2018-02-06T07:17:16.345Z,23.2
2018-02-06T07:18:16.223Z,23.2
2018-02-06T07:19:16.094Z,23.2
2018-02-06T07:20:16.093Z,23.2
2018-02-06T07:21:15.987Z,23.2
2018-02-06T07:22:15.917Z,23.3
2018-02-06T07:23:16.129Z,23.3
2018-02-06T07:24:15.899Z,23.3
2018-02-06T07:25:15.703Z,23.3
2018-02-06T07:26:15.673Z,23.3
2018-02-06T07:27:15.538Z,23.3
2018-02-06T07:28:15.605Z,23.3
2018-02-06T07:29:15.432Z,23.3
2018-02-06T07:30:15.518Z,23.3
2018-02-06T07:31:15.263Z,23.4
2018-02-06T07:32:15.225Z,23.4
2018-02-06T07:33:15.157Z,23.4
2018-02-06T07:34:15.090Z,23.4
2018-02-06T07:35:15.171Z,23.4
2018-02-06T07:36:15.010Z,23.4
2018-02-06T07:37:14.913Z,23.4
2018-02-06T07:38:15.064Z,23.5
2018-02-06T07:39:14.746Z,23.5
2018-02-06T07:40:14.682Z,23.5
2018-02-06T07:41:14.606Z,23.6
2018-02-06T07:42:14.571Z,23.6
2018-02-06T07:43:14.527Z,23.6
2018-02-06T07:44:14.504Z,23.6
2018-02-06T07:45:14.333Z,23.6
2018-02-06T07:46:14.414Z,23.7
2018-02-06T07:47:14.251Z,23.7
2018-02-06T07:48:14.174Z,23.7
2018-02-06T07:49:14.043Z,23.7
2018-02-06T07:50:14.037Z,23.7
2018-02-06T07:51:13.920Z,23.8
2018-02-06T07:52:13.954Z,23.8
2018-02-06T07:53:13.749Z,23.8
2018-02-06T07:54:13.864Z,23.8
2018-02-06T07:55:13.660Z,23.8
2018-02-06T07:56:13.603Z,23.9
2018-02-06T07:57:13.612Z,23.9
2018-02-06T07:58:13.493Z,23.9
2018-02-06T07:59:13.512Z,23.9
2018-02-06T08:00:13.405Z,23.9
2018-02-06T08:01:13.227Z,23.8
2018-02-06T08:02:13.160Z,23.8
2018-02-06T08:03:13.088Z,23.8
2018-02-06T08:04:13.086Z,23.8
2018-02-06T08:05:13.087Z,23.8
2018-02-06T08:06:12.888Z,23.9
2018-02-06T08:07:12.847Z,24
2018-02-06T08:08:12.811Z,24
2018-02-06T08:09:12.709Z,24
2018-02-06T08:10:12.862Z,24.1
2018-02-06T08:11:12.644Z,24.1
2018-02-06T08:12:12.584Z,24.1
2018-02-06T08:13:12.396Z,24.1
2018-02-06T08:14:12.622Z,24.1
2018-02-06T08:15:12.380Z,24.1
2018-02-06T08:16:12.194Z,24.1
2018-02-06T08:17:12.135Z,24.1
2018-02-06T08:18:12.095Z,24.1
2018-02-06T08:19:12.052Z,24.2
2018-02-06T08:20:11.982Z,24.2
2018-02-06T08:21:11.868Z,24.2
2018-02-06T08:22:11.781Z,24.2
2018-02-06T08:23:11.735Z,24.3
2018-02-06T08:24:11.644Z,24.3
2018-02-06T08:25:11.549Z,24.3
2018-02-06T08:26:11.539Z,24.3
2018-02-06T08:27:11.439Z,24.4
2018-02-06T08:28:11.653Z,24.4
2018-02-06T08:29:11.394Z,24.4
2018-02-06T08:30:11.488Z,24.4
2018-02-06T08:31:11.202Z,24.4
2018-02-06T08:32:11.202Z,24.4
2018-02-06T08:33:11.311Z,24.4
2018-02-06T08:34:11.250Z,24.3
2018-02-06T08:35:10.892Z,24.3
2018-02-06T08:36:10.883Z,24.2
2018-02-06T08:37:11.051Z,24.2
2018-02-06T08:38:10.830Z,24.1
2018-02-06T08:39:10.721Z,24.2
2018-02-06T08:40:10.542Z,24.1
2018-02-06T08:41:10.582Z,24.1
2018-02-06T08:42:10.437Z,24.1
2018-02-06T08:43:10.626Z,24.1
2018-02-06T08:44:10.557Z,23.9
2018-02-06T08:45:10.495Z,23.9
2018-02-06T08:46:10.439Z,23.9
2018-02-06T08:47:10.209Z,23.9
2018-02-06T08:48:10.148Z,23.9
2018-02-06T08:49:09.982Z,23.9
2018-02-06T08:50:09.872Z,23.8
2018-02-06T08:51:09.907Z,23.9
2018-02-06T08:52:09.715Z,23.9
2018-02-06T08:53:09.668Z,23.9
2018-02-06T08:54:09.546Z,23.9
2018-02-06T08:55:09.509Z,23.9
2018-02-06T08:56:09.460Z,24
2018-02-06T08:57:09.519Z,24.1
2018-02-06T08:58:09.272Z,24.1
2018-02-06T08:59:09.266Z,24
2018-02-06T09:00:09.134Z,23.9
2018-02-06T09:01:09.095Z,24
2018-02-06T09:02:09.086Z,24
2018-02-06T09:03:08.997Z,24
2018-02-06T09:04:08.908Z,23.9
2018-02-06T09:05:08.820Z,23.9
2018-02-06T09:06:08.859Z,23.9
2018-02-06T09:07:08.682Z,23.9
2018-02-06T09:08:08.673Z,23.9
2018-02-06T09:09:08.683Z,23.8
2018-02-06T09:10:08.583Z,23.8
2018-02-06T09:11:08.467Z,23.8
2018-02-06T09:12:08.371Z,23.8
2018-02-06T09:13:08.335Z,23.8
2018-02-06T09:14:08.239Z,23.7
2018-02-06T09:15:08.135Z,23.6
2018-02-06T09:16:08.063Z,23.7
2018-02-06T09:17:08.046Z,23.7
2018-02-06T09:18:08.081Z,23.7
2018-02-06T09:19:07.826Z,23.6
2018-02-06T09:20:07.936Z,23.6
2018-02-06T09:21:07.783Z,23.6
2018-02-06T09:22:07.810Z,23.6
2018-02-06T09:23:07.692Z,23.6
2018-02-06T09:24:07.664Z,23.6
2018-02-06T09:25:07.434Z,23.6
2018-02-06T09:26:07.380Z,23.6
2018-02-06T09:27:07.356Z,23.6
2018-02-06T09:28:07.353Z,23.5
2018-02-06T09:29:07.320Z,23.5
2018-02-06T09:30:07.074Z,23.5
2018-02-06T09:31:07.065Z,23.5
2018-02-06T09:32:07.023Z,23.5
2018-02-06T09:33:06.894Z,23.4
2018-02-06T09:34:06.825Z,23.4
2018-02-06T09:35:07.051Z,23.4
2018-02-06T09:36:06.838Z,23.4
2018-02-06T09:37:06.592Z,23.4
2018-02-06T09:38:06.555Z,23.4
2018-02-06T09:39:06.593Z,23.4
2018-02-06T09:40:06.566Z,23.4
2018-02-06T09:41:06.350Z,23.4
2018-02-06T09:42:06.244Z,23.4
2018-02-06T09:43:06.204Z,23.3
2018-02-06T09:44:06.247Z,23.1
2018-02-06T09:45:06.072Z,23.1
2018-02-06T09:46:06.287Z,23
2018-02-06T09:47:05.990Z,22.9
2018-02-06T09:48:05.899Z,22.7
2018-02-06T09:49:05.798Z,22.4
2018-02-06T09:50:05.731Z,22.2
2018-02-06T09:51:05.654Z,22
2018-02-06T09:52:05.647Z,21.8
2018-02-06T09:53:05.557Z,21.8
2018-02-06T09:54:05.453Z,21.8
2018-02-06T09:55:05.381Z,21.8
2018-02-06T09:56:05.313Z,21.9
2018-02-06T09:57:05.228Z,22
2018-02-06T09:58:05.321Z,21.9
2018-02-06T09:59:05.102Z,22
2018-02-06T10:00:05.039Z,22
2018-02-06T10:01:04.997Z,22
2018-02-06T10:02:04.871Z,22
2018-02-06T10:03:05.147Z,21.9
2018-02-06T10:04:04.821Z,21.9
2018-02-06T10:05:04.691Z,21.9
2018-02-06T10:06:04.654Z,21.9
2018-02-06T10:07:04.521Z,22
2018-02-06T10:08:04.483Z,22.1
2018-02-06T10:09:04.450Z,22.1
2018-02-06T10:10:04.370Z,22.2
2018-02-06T10:11:04.279Z,22
2018-02-06T10:12:04.243Z,21.9
2018-02-06T10:13:04.256Z,22
2018-02-06T10:14:04.226Z,22.2
2018-02-06T10:15:04.007Z,22.5
2018-02-06T10:16:04.047Z,22.7
2018-02-06T10:17:03.878Z,22.8
2018-02-06T10:18:04.086Z,23
2018-02-06T10:19:03.794Z,23.1
2018-02-06T10:20:03.698Z,23.3
2018-02-06T10:21:03.587Z,23.4
2018-02-06T10:22:03.487Z,23.6
2018-02-06T10:23:03.487Z,23.6
2018-02-06T10:24:03.631Z,23.6
2018-02-06T10:25:03.346Z,23.6
2018-02-06T10:26:03.245Z,23.7
2018-02-06T10:27:03.494Z,23.8
2018-02-06T10:28:03.108Z,23.4
2018-02-06T10:29:03.129Z,22.9
2018-02-06T10:30:03.116Z,22.5
2018-02-06T10:31:02.956Z,22
2018-02-06T10:32:02.979Z,21.4
2018-02-06T10:33:02.769Z,21.4
2018-02-06T10:34:02.695Z,21.4
2018-02-06T10:35:02.592Z,21.3
2018-02-06T10:36:02.705Z,21.6
2018-02-06T10:37:02.600Z,21.7
2018-02-06T10:38:02.418Z,21.8
2018-02-06T10:39:02.353Z,21.9
2018-02-06T10:40:02.248Z,21.9
2018-02-06T10:41:02.244Z,21.8
2018-02-06T10:42:02.298Z,21.8
2018-02-06T10:43:02.042Z,21.8
2018-02-06T10:44:02.164Z,21.9
2018-02-06T10:45:01.936Z,22.4
2018-02-06T10:46:01.867Z,22.6
2018-02-06T10:47:01.946Z,22.8
2018-02-06T10:48:01.698Z,23
2018-02-06T10:49:01.720Z,23.4
2018-02-06T10:50:01.592Z,23.8
2018-02-06T10:51:01.693Z,23.9
2018-02-06T10:52:01.725Z,24.1
2018-02-06T10:53:01.380Z,24.3
2018-02-06T10:54:01.468Z,24.4
2018-02-06T10:55:01.354Z,24.4
2018-02-06T10:56:01.219Z,24.5
2018-02-06T10:57:01.361Z,24.6
2018-02-06T10:58:01.035Z,24.7
2018-02-06T10:59:01.102Z,24.8
2018-02-06T11:00:00.916Z,24.8
2018-02-06T11:01:00.848Z,24.8
2018-02-06T11:02:00.735Z,24.7
2018-02-06T11:03:00.690Z,24.7
2018-02-06T11:04:00.626Z,24.7
2018-02-06T11:05:00.591Z,24.8
2018-02-06T11:06:00.455Z,24.8
2018-02-06T11:07:00.573Z,24.7
2018-02-06T11:08:00.594Z,24.6
2018-02-06T11:09:00.279Z,24.5
2018-02-06T11:10:00.211Z,24.5
2018-02-06T11:11:00.145Z,24.5
2018-02-06T11:12:00.129Z,24.5
2018-02-06T11:13:00.039Z,24.4
2018-02-06T11:13:59.903Z,24.2
2018-02-06T11:14:59.903Z,24.1
2018-02-06T11:15:59.797Z,24.1
2018-02-06T11:16:59.814Z,24.1
2018-02-06T11:17:59.692Z,24.1
2018-02-06T11:18:59.703Z,23.9
2018-02-06T11:19:59.560Z,23.8
2018-02-06T11:20:59.455Z,23.8
2018-02-06T11:21:59.384Z,23.8
2018-02-06T11:22:59.288Z,23.8
2018-02-06T11:23:59.394Z,23.6
2018-02-06T11:24:59.183Z,23.5
2018-02-06T11:25:59.216Z,23.5
2018-02-06T11:26:59.143Z,23.6
2018-02-06T11:27:58.971Z,23.5
2018-02-06T11:28:59.011Z,23.4
2018-02-06T11:29:58.860Z,23.3
2018-02-06T11:30:58.917Z,23.4
2018-02-06T11:31:58.807Z,23.4
2018-02-06T11:32:58.711Z,23.3
2018-02-06T11:33:58.594Z,23.3
2018-02-06T11:34:58.507Z,23.3
2018-02-06T11:35:58.569Z,23.3
2018-02-06T11:36:58.352Z,23.3
2018-02-06T11:37:58.384Z,23.2
2018-02-06T11:38:58.212Z,23.1
2018-02-06T11:39:58.501Z,23.1
2018-02-06T11:40:58.072Z,23.1
2018-02-06T11:41:58.328Z,23.1
2018-02-06T11:42:57.906Z,23.1
2018-02-06T11:43:57.869Z,22.9
2018-02-06T11:44:57.911Z,22.9
2018-02-06T11:45:57.763Z,22.9
2018-02-06T11:46:57.638Z,22.9
2018-02-06T11:47:57.593Z,22.9
2018-02-06T11:48:57.629Z,22.9
2018-02-06T11:49:57.456Z,22.9
2018-02-06T11:50:57.425Z,23
2018-02-06T11:51:57.373Z,23
2018-02-06T11:52:57.356Z,22.9
2018-02-06T11:53:57.287Z,22.9
2018-02-06T11:54:57.174Z,22.9
2018-02-06T11:55:57.079Z,23
2018-02-06T11:56:56.981Z,23.1
2018-02-06T11:57:57.203Z,23.1
2018-02-06T11:58:56.939Z,23.1
2018-02-06T11:59:56.733Z,23.2
2018-02-06T12:00:56.732Z,23.1
2018-02-06T12:01:56.627Z,23.1
2018-02-06T12:02:56.662Z,23.1
2018-02-06T12:03:56.603Z,23.2
2018-02-06T12:04:56.506Z,23.2
2018-02-06T12:05:56.387Z,23.1
2018-02-06T12:06:56.432Z,23.1
2018-02-06T12:07:56.274Z,23.2
2018-02-06T12:08:56.147Z,23.3
2018-02-06T12:09:56.183Z,23.3
2018-02-06T12:10:56.054Z,23.2
2018-02-06T12:11:56.048Z,23.2
2018-02-06T12:12:55.867Z,23.3
2018-02-06T12:13:55.797Z,23.3
2018-02-06T12:14:55.841Z,23.2
2018-02-06T12:15:55.746Z,23.2
2018-02-06T12:16:55.562Z,23.1
2018-02-06T12:17:55.565Z,23.1
2018-02-06T12:18:55.431Z,23.1
2018-02-06T12:19:55.394Z,23.1
2018-02-06T12:20:55.662Z,23
2018-02-06T12:21:55.366Z,23
2018-02-06T12:22:55.215Z,23
2018-02-06T12:23:55.082Z,23.1
2018-02-06T12:24:55.075Z,23
2018-02-06T12:25:54.944Z,23
2018-02-06T12:26:55.014Z,23.1
2018-02-06T12:27:54.848Z,23.1
2018-02-06T12:28:54.764Z,23.1
2018-02-06T12:29:54.805Z,23.1
2018-02-06T12:30:54.634Z,23
2018-02-06T12:31:54.561Z,23.1
2018-02-06T12:32:54.612Z,23.1
2018-02-06T12:33:54.462Z,23.1
2018-02-06T12:34:54.328Z,23
2018-02-06T12:35:54.352Z,22.9
2018-02-06T12:36:54.533Z,22.9
2018-02-06T12:37:54.146Z,23
2018-02-06T12:38:54.081Z,22.9
2018-02-06T12:39:54.115Z,22.8
2018-02-06T12:40:53.996Z,22.7
2018-02-06T12:41:53.905Z,22.6
2018-02-06T12:42:53.807Z,22.6
2018-02-06T12:43:53.731Z,22.6
2018-02-06T12:44:53.670Z,22.8
2018-02-06T12:45:53.564Z,22.8
2018-02-06T12:46:53.676Z,23
2018-02-06T12:47:53.459Z,23
2018-02-06T12:48:53.492Z,23.1
2018-02-06T12:49:53.355Z,23.2
2018-02-06T12:50:53.220Z,23.3
2018-02-06T12:51:53.231Z,23.3
2018-02-06T12:52:53.228Z,23.2
2018-02-06T12:53:53.049Z,23.1
2018-02-06T12:54:53.125Z,23.3
2018-02-06T12:55:52.967Z,23.3
2018-02-06T12:56:52.894Z,23.3
2018-02-06T12:57:52.877Z,23.1
2018-02-06T12:58:52.736Z,23.1
2018-02-06T12:59:52.600Z,23.1
2018-02-06T13:00:52.559Z,23.1
2018-02-06T13:01:52.782Z,23
2018-02-06T13:02:52.424Z,22.8
2018-02-06T13:03:52.470Z,22.8
2018-02-06T13:04:52.389Z,22.9
2018-02-06T13:05:52.186Z,22.9
2018-02-06T13:06:52.249Z,22.8
2018-02-06T13:07:52.137Z,22.8
2018-02-06T13:08:52.390Z,22.7
2018-02-06T13:09:51.946Z,22.6
2018-02-06T13:10:52.122Z,22.3
2018-02-06T13:11:51.839Z,20.9
2018-02-06T13:12:51.746Z,20
2018-02-06T13:13:51.779Z,19.4
2018-02-06T13:14:51.711Z,19.1
2018-02-06T13:15:51.639Z,18.9
2018-02-06T13:16:51.466Z,18.9
2018-02-06T13:17:51.367Z,18.8
2018-02-06T13:18:51.475Z,18.6
2018-02-06T13:19:51.257Z,18.5
2018-02-06T13:20:51.182Z,18.6
2018-02-06T13:21:51.121Z,18.6
2018-02-06T13:22:51.157Z,19.2
2018-02-06T13:23:50.949Z,19.6
2018-02-06T13:24:50.932Z,20.2
2018-02-06T13:25:50.945Z,20.7
2018-02-06T13:26:50.745Z,21.1
2018-02-06T13:27:50.860Z,21.8
2018-02-06T13:28:50.605Z,22.3
2018-02-06T13:29:50.719Z,22.6
2018-02-06T13:30:50.605Z,23
2018-02-06T13:31:50.438Z,23.3
2018-02-06T13:32:50.361Z,23.6
2018-02-06T13:33:50.325Z,23.9
2018-02-06T13:34:50.279Z,24.1
2018-02-06T13:35:50.188Z,24.3
2018-02-06T13:36:50.143Z,24.4
2018-02-06T13:37:50.170Z,24.5
2018-02-06T13:38:50.058Z,24.4
2018-02-06T13:39:49.914Z,24.4
2018-02-06T13:40:49.893Z,24.4
2018-02-06T13:41:49.742Z,24.4
2018-02-06T13:42:49.999Z,24.6
2018-02-06T13:43:49.604Z,24.6
2018-02-06T13:44:49.570Z,24.3
2018-02-06T13:45:49.522Z,24.1
2018-02-06T13:46:49.406Z,24.2
2018-02-06T13:47:49.326Z,24.1
2018-02-06T13:48:49.274Z,24.1
2018-02-06T13:49:49.247Z,23.9
2018-02-06T13:50:49.155Z,23.7
2018-02-06T13:51:49.060Z,23.7
2018-02-06T13:52:49.088Z,23.7
2018-02-06T13:53:48.914Z,23.6
2018-02-06T13:54:48.885Z,23.4
2018-02-06T13:55:48.778Z,23.3
2018-02-06T13:56:48.999Z,23.3
2018-02-06T13:57:48.646Z,23.3
2018-02-06T13:58:48.539Z,23.2
2018-02-06T13:59:48.538Z,23
2018-02-06T14:00:48.476Z,23
2018-02-06T14:01:48.334Z,23
2018-02-06T14:02:48.607Z,23
2018-02-06T14:03:48.228Z,22.9
2018-02-06T14:04:48.158Z,22.8
2018-02-06T14:05:48.237Z,22.8
2018-02-06T14:06:47.990Z,22.7
2018-02-06T14:07:47.951Z,22.7
2018-02-06T14:08:47.994Z,22.7
2018-02-06T14:09:47.965Z,22.8
2018-02-06T14:10:47.726Z,22.8
2018-02-06T14:11:47.833Z,22.9
2018-02-06T14:12:47.602Z,22.9
2018-02-06T14:13:47.548Z,22.9
2018-02-06T14:14:47.576Z,22.9
2018-02-06T14:15:47.404Z,23
2018-02-06T14:16:47.364Z,23.1
2018-02-06T14:17:47.233Z,22.9
2018-02-06T14:18:47.233Z,22.9
2018-02-06T14:19:47.192Z,22.9
2018-02-06T14:20:47.057Z,23
2018-02-06T14:21:47.023Z,23
2018-02-06T14:22:46.982Z,22.8
2018-02-06T14:23:47.199Z,22.8
2018-02-06T14:24:46.782Z,22.7
2018-02-06T14:25:46.712Z,22.7
2018-02-06T14:26:46.757Z,22.7
2018-02-06T14:27:46.607Z,22.7
2018-02-06T14:28:46.623Z,22.8
2018-02-06T14:29:46.590Z,22.9
2018-02-06T14:30:46.478Z,22.9
2018-02-06T14:31:46.409Z,22.8
2018-02-06T14:32:46.341Z,22.9
2018-02-06T14:33:46.162Z,22.9
2018-02-06T14:34:46.063Z,23
2018-02-06T14:35:46.055Z,22.9
2018-02-06T14:36:45.966Z,22.8
2018-02-06T14:37:45.948Z,22.9
2018-02-06T14:38:45.966Z,22.9
2018-02-06T14:39:45.719Z,22.9
2018-02-06T14:40:45.835Z,22.8
2018-02-06T14:41:45.615Z,22.8
2018-02-06T14:42:45.540Z,22.8
2018-02-06T14:43:45.477Z,22.9
2018-02-06T14:44:45.420Z,22.9
2018-02-06T14:45:45.393Z,22.8
2018-02-06T14:46:45.304Z,22.8
2018-02-06T14:47:45.258Z,22.8
2018-02-06T14:48:45.127Z,22.8
2018-02-06T14:49:45.171Z,22.8
2018-02-06T14:50:45.025Z,22.7
2018-02-06T14:51:44.893Z,22.7
2018-02-06T14:52:44.959Z,22.7
2018-02-06T14:53:44.796Z,22.8
2018-02-06T14:54:44.825Z,22.8
2018-02-06T14:55:44.795Z,22.8
2018-02-06T14:56:44.554Z,22.7
2018-02-06T14:57:44.767Z,22.7
2018-02-06T14:58:44.756Z,22.8
